Terminal Aerodrome Forecast
Issued by NWS

Home | Current Version | Previous Version | Text Only | Print | Product List | Glossary On
Versions: 1 2 3 4 5 6 7 8 9 10 11 12
000
FTUS44 KEPZ 240520
TAFTCS
TAF
KTCS 240520Z 2406/2506 29006KT P6SM FEW150
     FM241400 03006KT P6SM SKC
     FM242000 05007KT P6SM FEW090 SCT130 BKN250
     FM250500 34007KT P6SM FEW140=

USA.gov is the U.S. government's official web portal to all federal, state and local government web resources and services.